KHSA

Stennis International Airport

Bay St Louis, Mississippi, USA
METAR KHSA 192250Z 00000KT 7SM SKC 26/24 A2999
Observed Flight Rules
Aug-19 @ 22:50 UTC (17 minutes ago) Visual Flight Rules
Visibility Clouds
7 miles
  • Clear skies
Temperatures Readings
Current 26°C / 79°F
Dewpoint 24°C / 75°F
Humidity 89%
Altimeter 29.99" Hg
Pressure 1016 hPa
Elevation 7
METAR KHSA 192250Z 00000KT 7SM SKC 26/24 A2999
Observed Flight Rules
Aug-19 @ 22:50 UTC
(17 minutes ago)
VFR
Clouds
  • Clear skies
Temperature Dewpoint
26°C / 79°F 24°C / 75°F
Humidity Altimeter Pressure
89% 29.99" Hg 1016 hPa